Time,TemperatureF,DewpointF,PressureIn,WindDirection,WindDirectionDegrees,WindSpeedMPH,WindSpeedGustMPH,Humidity,HourlyPrecipIn,Conditions,Clouds,dailyrainin,SoftwareType,DateUTC
2013-04-11 00:00:00,44.2,43.1,29.73,ESE,119,0.0,4.0,96,0.02,,---,1.40,VWS V13.01,2013-04-11 04:00:00,
2013-04-11 00:01:00,44.2,43.1,29.73,ESE,119,0.0,0.0,96,0.02,,---,0.00,VWS V13.01,2013-04-11 04:01:00,
2013-04-11 00:03:00,44.2,43.1,29.73,ESE,119,0.0,1.0,96,0.00,,---,0.00,VWS V13.01,2013-04-11 04:03:00,
2013-04-11 00:08:00,44.2,43.1,29.73,ESE,118,0.0,1.0,96,0.00,,---,0.00,VWS V13.01,2013-04-11 04:08:00,
2013-04-11 00:13:00,44.2,43.1,29.73,ESE,118,0.0,1.0,96,0.00,,---,0.00,VWS V13.01,2013-04-11 04:13:00,
2013-04-11 00:18:00,44.3,43.2,29.72,ESE,119,0.0,1.0,96,0.00,,---,0.00,VWS V13.01,2013-04-11 04:18:00,
2013-04-11 00:24:00,44.3,43.2,29.72,ESE,118,0.0,1.0,96,0.00,,---,0.00,VWS V13.01,2013-04-11 04:24:00,
2013-04-11 00:29:00,44.4,43.3,29.72,ESE,119,0.0,4.0,96,0.00,,---,0.00,VWS V13.01,2013-04-11 04:29:00,
2013-04-11 00:34:00,44.4,43.3,29.72,ESE,118,0.0,1.0,96,0.00,,---,0.00,VWS V13.01,2013-04-11 04:34:00,
2013-04-11 00:40:00,44.5,43.7,29.73,ESE,119,0.0,4.0,97,0.00,,---,0.00,VWS V13.01,2013-04-11 04:40:00,
2013-04-11 00:45:00,44.5,43.4,29.73,ESE,119,0.0,4.0,96,0.00,,---,0.00,VWS V13.01,2013-04-11 04:45:00,
2013-04-11 00:50:00,44.5,43.7,29.74,ESE,119,0.0,4.0,97,0.00,,---,0.00,VWS V13.01,2013-04-11 04:50:00,
2013-04-11 00:55:00,44.6,43.8,29.73,ESE,118,0.0,4.0,97,0.00,,---,0.00,VWS V13.01,2013-04-11 04:55:00,
2013-04-11 01:00:00,44.6,43.8,29.74,ESE,118,0.0,0.0,97,0.00,,---,0.00,VWS V13.01,2013-04-11 05:00:00,
2013-04-11 01:05:00,44.6,43.8,29.74,ESE,119,0.0,0.0,97,0.00,,---,0.00,VWS V13.01,2013-04-11 05:05:00,
2013-04-11 01:11:00,44.6,43.8,29.74,ESE,119,0.0,0.0,97,0.00,,---,0.00,VWS V13.01,2013-04-11 05:11:00,
2013-04-11 01:16:00,44.6,43.8,29.75,ESE,119,0.0,0.0,97,0.00,,---,0.00,VWS V13.01,2013-04-11 05:16:00,
2013-04-11 01:22:00,44.6,43.8,29.75,ESE,118,0.0,1.0,97,0.00,,---,0.00,VWS V13.01,2013-04-11 05:22:00,
2013-04-11 01:27:00,44.7,43.9,29.76,ESE,118,0.0,1.0,97,0.00,,---,0.00,VWS V13.01,2013-04-11 05:27:00,
2013-04-11 01:32:00,44.5,43.4,29.75,ESE,119,0.0,3.0,96,0.00,,---,0.00,VWS V13.01,2013-04-11 05:32:00,
2013-04-11 01:37:00,44.3,43.2,29.75,ESE,119,0.0,3.0,96,0.00,,---,0.00,VWS V13.01,2013-04-11 05:37:00,
2013-04-11 01:42:00,44.3,43.2,29.76,ESE,119,0.0,3.0,96,0.00,,---,0.00,VWS V13.01,2013-04-11 05:42:00,
2013-04-11 01:48:00,44.3,43.2,29.76,ESE,119,0.0,3.0,96,0.00,,---,0.00,VWS V13.01,2013-04-11 05:48:00,
2013-04-11 01:53:00,44.3,43.2,29.76,ESE,118,0.0,4.0,96,0.00,,---,0.00,VWS V13.01,2013-04-11 05:53:00,
2013-04-11 01:58:00,44.1,43.0,29.76,ESE,118,0.0,4.0,96,0.00,,---,0.00,VWS V13.01,2013-04-11 05:58:00,
2013-04-11 02:03:00,44.1,43.0,29.77,ESE,118,0.0,0.0,96,0.00,,---,0.00,VWS V13.01,2013-04-11 06:03:00,
2013-04-11 02:08:00,44.0,42.9,29.76,ESE,118,0.0,0.0,96,0.00,,---,0.00,VWS V13.01,2013-04-11 06:08:00,
2013-04-11 02:14:00,43.9,42.8,29.77,ESE,118,0.0,5.0,96,0.00,,---,0.00,VWS V13.01,2013-04-11 06:14:00,
2013-04-11 02:19:00,43.8,42.7,29.77,ESE,118,0.0,5.0,96,0.00,,---,0.00,VWS V13.01,2013-04-11 06:19:00,
2013-04-11 02:24:00,43.7,42.6,29.77,ESE,118,0.0,5.0,96,0.00,,---,0.00,VWS V13.01,2013-04-11 06:24:00,
2013-04-11 02:29:00,43.6,42.5,29.78,ESE,118,0.0,5.0,96,0.00,,---,0.00,VWS V13.01,2013-04-11 06:29:00,
2013-04-11 02:35:00,43.8,42.7,29.79,ESE,118,0.0,0.0,96,0.00,,---,0.00,VWS V13.01,2013-04-11 06:35:00,
2013-04-11 02:40:00,43.7,42.6,29.79,ESE,118,0.0,0.0,96,0.00,,---,0.00,VWS V13.01,2013-04-11 06:40:00,
2013-04-11 02:45:00,43.7,42.6,29.78,ESE,118,0.0,1.0,96,0.00,,---,0.00,VWS V13.01,2013-04-11 06:45:00,
2013-04-11 02:50:00,43.7,42.6,29.78,ESE,118,0.0,1.0,96,0.00,,---,0.00,VWS V13.01,2013-04-11 06:50:00,
2013-04-11 02:56:00,43.7,42.6,29.78,ESE,118,0.0,1.0,96,0.00,,---,0.00,VWS V13.01,2013-04-11 06:56:00,
2013-04-11 03:02:00,43.8,42.7,29.79,ESE,118,0.0,0.0,96,0.01,,---,0.01,VWS V13.01,2013-04-11 07:02:00,
2013-04-11 03:07:00,43.7,42.6,29.79,ESE,118,0.0,1.0,96,0.01,,---,0.01,VWS V13.01,2013-04-11 07:07:00,
2013-04-11 03:12:00,43.7,42.6,29.79,ESE,118,0.0,1.0,96,0.02,,---,0.02,VWS V13.01,2013-04-11 07:12:00,
2013-04-11 03:17:00,43.6,42.5,29.79,ESE,118,0.0,1.0,96,0.02,,---,0.02,VWS V13.01,2013-04-11 07:17:00,
2013-04-11 03:23:00,43.7,42.6,29.79,ESE,118,0.0,1.0,96,0.03,,---,0.03,VWS V13.01,2013-04-11 07:23:00,
2013-04-11 03:28:00,43.6,42.5,29.79,ESE,118,0.0,1.0,96,0.04,,---,0.04,VWS V13.01,2013-04-11 07:28:00,
2013-04-11 03:33:00,43.6,42.5,29.78,ESE,118,0.0,4.0,96,0.04,,---,0.04,VWS V13.01,2013-04-11 07:33:00,
2013-04-11 03:38:00,43.6,42.8,29.78,ESE,118,0.0,4.0,97,0.06,,---,0.06,VWS V13.01,2013-04-11 07:38:00,
2013-04-11 03:44:00,43.6,42.8,29.77,ESE,118,5.0,5.0,97,0.06,,---,0.06,VWS V13.01,2013-04-11 07:44:00,
2013-04-11 03:49:00,43.3,42.5,29.76,ESE,118,6.0,7.0,97,0.07,,---,0.07,VWS V13.01,2013-04-11 07:49:00,
2013-04-11 03:54:00,43.3,42.2,29.76,ESE,115,2.0,8.0,96,0.07,,---,0.07,VWS V13.01,2013-04-11 07:54:00,
2013-04-11 04:00:00,43.3,42.2,29.76,ESE,108,1.0,8.0,96,0.07,,---,0.07,VWS V13.01,2013-04-11 08:00:00,
2013-04-11 04:05:00,43.2,42.1,29.75,ESE,109,6.0,7.0,96,0.07,,---,0.08,VWS V13.01,2013-04-11 08:05:00,
2013-04-11 04:10:00,43.2,42.1,29.75,ESE,116,1.0,9.0,96,0.07,,---,0.08,VWS V13.01,2013-04-11 08:10:00,
2013-04-11 04:16:00,43.2,42.4,29.77,ESE,110,0.0,9.0,97,0.07,,---,0.08,VWS V13.01,2013-04-11 08:16:00,
2013-04-11 04:21:00,43.2,42.4,29.78,ESE,110,0.0,9.0,97,0.07,,---,0.08,VWS V13.01,2013-04-11 08:21:00,
2013-04-11 04:27:00,43.2,42.1,29.77,ESE,110,0.0,9.0,96,0.07,,---,0.08,VWS V13.01,2013-04-11 08:27:00,
2013-04-11 04:32:00,43.2,42.1,29.76,ESE,109,4.0,6.0,96,0.04,,---,0.08,VWS V13.01,2013-04-11 08:32:00,
2013-04-11 04:37:00,43.3,42.2,29.74,ESE,105,8.0,8.0,96,0.04,,---,0.08,VWS V13.01,2013-04-11 08:37:00,
2013-04-11 04:43:00,43.1,42.0,29.73,ESE,113,8.0,10.0,96,0.04,,---,0.08,VWS V13.01,2013-04-11 08:43:00,
2013-04-11 04:48:00,43.0,41.9,29.74,ESE,114,7.0,10.0,96,0.04,,---,0.08,VWS V13.01,2013-04-11 08:48:00,
2013-04-11 04:53:00,43.0,41.9,29.74,ESE,112,4.0,10.0,96,0.04,,---,0.08,VWS V13.01,2013-04-11 08:53:00,
2013-04-11 04:58:00,43.0,41.9,29.74,ESE,109,5.0,10.0,96,0.04,,---,0.08,VWS V13.01,2013-04-11 08:58:00,
2013-04-11 05:03:00,43.1,42.0,29.74,ESE,103,5.0,7.0,96,0.01,,---,0.08,VWS V13.01,2013-04-11 09:03:00,
2013-04-11 05:09:00,43.1,42.0,29.75,ESE,110,3.0,8.0,96,0.01,,---,0.08,VWS V13.01,2013-04-11 09:09:00,
2013-04-11 05:14:00,43.1,42.0,29.76,ESE,102,0.0,8.0,96,0.01,,---,0.08,VWS V13.01,2013-04-11 09:14:00,
2013-04-11 05:19:00,43.1,42.0,29.76,ESE,102,0.0,8.0,96,0.01,,---,0.08,VWS V13.01,2013-04-11 09:19:00,
2013-04-11 05:24:00,43.2,42.1,29.76,ESE,102,0.0,8.0,96,0.01,,---,0.08,VWS V13.01,2013-04-11 09:24:00,
2013-04-11 05:29:00,43.2,42.1,29.77,ESE,102,1.0,8.0,96,0.01,,---,0.08,VWS V13.01,2013-04-11 09:29:00,
2013-04-11 05:35:00,43.1,42.0,29.77,ESE,102,0.0,4.0,96,0.01,,---,0.09,VWS V13.01,2013-04-11 09:35:00,
2013-04-11 05:40:00,43.2,42.1,29.78,ESE,102,0.0,4.0,96,0.01,,---,0.09,VWS V13.01,2013-04-11 09:40:00,
2013-04-11 05:45:00,43.1,42.0,29.78,ESE,105,0.0,5.0,96,0.01,,---,0.09,VWS V13.01,2013-04-11 09:45:00,
2013-04-11 05:50:00,43.1,42.0,29.77,ESE,107,5.0,7.0,96,0.01,,---,0.09,VWS V13.01,2013-04-11 09:50:00,
2013-04-11 05:55:00,43.1,42.0,29.76,ESE,109,6.0,7.0,96,0.01,,---,0.09,VWS V13.01,2013-04-11 09:55:00,
2013-04-11 06:01:00,43.1,42.0,29.76,ESE,107,5.0,5.0,96,0.01,,---,0.09,VWS V13.01,2013-04-11 10:01:00,
2013-04-11 06:07:00,43.0,41.9,29.75,ESE,102,4.0,10.0,96,0.01,,---,0.09,VWS V13.01,2013-04-11 10:07:00,
2013-04-11 06:12:00,42.9,41.6,29.75,ESE,105,6.0,10.0,95,0.01,,---,0.09,VWS V13.01,2013-04-11 10:12:00,
2013-04-11 06:17:00,42.9,41.6,29.74,ESE,106,6.0,10.0,95,0.01,,---,0.09,VWS V13.01,2013-04-11 10:17:00,
2013-04-11 06:22:00,42.8,41.5,29.74,ESE,109,6.0,10.0,95,0.01,,---,0.09,VWS V13.01,2013-04-11 10:22:00,
2013-04-11 06:28:00,42.8,41.5,29.74,ESE,108,8.0,11.0,95,0.01,,---,0.09,VWS V13.01,2013-04-11 10:28:00,
2013-04-11 06:34:00,42.8,41.5,29.74,East,82,6.0,10.0,95,0.01,,---,0.09,VWS V13.01,2013-04-11 10:34:00,
2013-04-11 06:39:00,42.8,41.5,29.74,ESE,103,5.0,10.0,95,0.01,,---,0.09,VWS V13.01,2013-04-11 10:39:00,
2013-04-11 06:45:00,42.8,41.5,29.74,ESE,111,6.0,11.0,95,0.01,,---,0.09,VWS V13.01,2013-04-11 10:45:00,
2013-04-11 06:50:00,42.7,41.4,29.73,ESE,103,5.0,11.0,95,0.01,,---,0.09,VWS V13.01,2013-04-11 10:50:00,
2013-04-11 06:55:00,42.6,41.0,29.73,SE,136,6.0,11.0,94,0.01,,---,0.09,VWS V13.01,2013-04-11 10:55:00,
2013-04-11 07:00:00,42.5,41.2,29.73,ESE,118,6.0,11.0,95,0.01,,---,0.09,VWS V13.01,2013-04-11 11:00:00,
2013-04-11 07:05:00,42.6,41.3,29.73,ESE,117,6.0,7.0,95,0.00,,---,0.09,VWS V13.01,2013-04-11 11:05:00,
2013-04-11 07:11:00,42.7,41.4,29.74,ESE,113,5.0,7.0,95,0.00,,---,0.09,VWS V13.01,2013-04-11 11:11:00,
2013-04-11 07:16:00,42.7,41.4,29.73,ESE,109,5.0,7.0,95,0.00,,---,0.09,VWS V13.01,2013-04-11 11:16:00,
2013-04-11 07:21:00,42.6,41.3,29.74,ESE,111,4.0,9.0,95,0.00,,---,0.09,VWS V13.01,2013-04-11 11:21:00,
2013-04-11 07:26:00,42.7,41.4,29.74,ESE,111,5.0,9.0,95,0.00,,---,0.09,VWS V13.01,2013-04-11 11:26:00,
2013-04-11 07:32:00,42.8,41.5,29.74,ESE,111,4.0,7.0,95,0.00,,---,0.09,VWS V13.01,2013-04-11 11:32:00,
2013-04-11 07:37:00,42.8,41.5,29.74,ESE,113,6.0,9.0,95,0.00,,---,0.09,VWS V13.01,2013-04-11 11:37:00,
2013-04-11 07:42:00,43.0,41.7,29.75,ESE,103,5.0,9.0,95,0.00,,---,0.09,VWS V13.01,2013-04-11 11:42:00,
2013-04-11 07:47:00,42.9,41.6,29.75,ESE,107,4.0,9.0,95,0.00,,---,0.09,VWS V13.01,2013-04-11 11:47:00,
2013-04-11 07:52:00,42.9,41.6,29.75,East,100,5.0,9.0,95,0.00,,---,0.09,VWS V13.01,2013-04-11 11:52:00,
2013-04-11 07:58:00,42.9,41.6,29.76,East,101,3.0,9.0,95,0.00,,---,0.09,VWS V13.01,2013-04-11 11:58:00,
2013-04-11 08:03:00,42.8,41.5,29.76,ESE,104,4.0,6.0,95,0.00,,---,0.09,VWS V13.01,2013-04-11 12:03:00,
2013-04-11 08:08:00,42.8,41.5,29.77,East,91,1.0,7.0,95,0.00,,---,0.09,VWS V13.01,2013-04-11 12:08:00,
2013-04-11 08:13:00,42.7,41.4,29.77,East,94,5.0,7.0,95,0.00,,---,0.09,VWS V13.01,2013-04-11 12:13:00,
2013-04-11 08:19:00,42.7,41.4,29.77,East,89,4.0,7.0,95,0.00,,---,0.09,VWS V13.01,2013-04-11 12:19:00,
2013-04-11 08:24:00,42.7,41.4,29.78,East,91,5.0,8.0,95,0.00,,---,0.09,VWS V13.01,2013-04-11 12:24:00,
2013-04-11 08:29:00,42.8,41.5,29.78,ESE,107,8.0,9.0,95,0.00,,---,0.09,VWS V13.01,2013-04-11 12:29:00,
2013-04-11 08:34:00,42.8,41.5,29.79,ENE,75,4.0,8.0,95,0.00,,---,0.09,VWS V13.01,2013-04-11 12:34:00,
2013-04-11 08:39:00,42.8,41.5,29.80,East,91,5.0,9.0,95,0.00,,---,0.09,VWS V13.01,2013-04-11 12:39:00,
2013-04-11 08:45:00,42.8,41.5,29.79,East,91,7.0,9.0,95,0.00,,---,0.09,VWS V13.01,2013-04-11 12:45:00,
2013-04-11 08:50:00,42.8,41.5,29.78,ESE,113,6.0,9.0,95,0.00,,---,0.09,VWS V13.01,2013-04-11 12:50:00,
2013-04-11 08:55:00,42.7,41.4,29.78,East,100,11.0,11.0,95,0.00,,---,0.09,VWS V13.01,2013-04-11 12:55:00,
2013-04-11 09:00:00,42.6,41.5,29.78,ESE,115,9.0,13.0,96,0.00,,---,0.09,VWS V13.01,2013-04-11 13:00:00,
2013-04-11 09:05:00,42.6,41.5,29.78,ESE,103,6.0,10.0,96,0.00,,---,0.09,VWS V13.01,2013-04-11 13:05:00,
2013-04-11 09:10:00,42.5,41.4,29.78,East,84,7.0,10.0,96,0.00,,---,0.09,VWS V13.01,2013-04-11 13:10:00,
2013-04-11 09:16:00,42.5,41.4,29.78,ESE,103,9.0,11.0,96,0.00,,---,0.09,VWS V13.01,2013-04-11 13:16:00,
2013-04-11 09:21:00,42.4,41.3,29.78,ESE,102,6.0,11.0,96,0.00,,---,0.09,VWS V13.01,2013-04-11 13:21:00,
2013-04-11 09:26:00,42.4,41.3,29.78,East,80,4.0,11.0,96,0.00,,---,0.09,VWS V13.01,2013-04-11 13:26:00,
2013-04-11 09:31:00,42.5,41.4,29.78,East,94,5.0,7.0,96,0.00,,---,0.09,VWS V13.01,2013-04-11 13:31:00,
2013-04-11 09:36:00,42.5,41.4,29.78,East,96,8.0,9.0,96,0.00,,---,0.09,VWS V13.01,2013-04-11 13:36:00,
2013-04-11 09:41:00,42.5,41.4,29.79,East,86,2.0,9.0,96,0.00,,---,0.09,VWS V13.01,2013-04-11 13:41:00,
2013-04-11 09:47:00,42.5,41.4,29.78,East,93,9.0,13.0,96,0.00,,---,0.09,VWS V13.01,2013-04-11 13:47:00,
2013-04-11 09:52:00,42.6,41.5,29.79,East,91,8.0,13.0,96,0.00,,---,0.09,VWS V13.01,2013-04-11 13:52:00,
2013-04-11 09:58:00,42.7,41.6,29.82,ENE,59,6.0,13.0,96,0.00,,---,0.09,VWS V13.01,2013-04-11 13:58:00,
2013-04-11 10:03:00,42.7,41.6,29.82,ENE,62,0.0,2.0,96,0.00,,---,0.09,VWS V13.01,2013-04-11 14:03:00,
2013-04-11 10:08:00,42.8,41.7,29.88,North,10,8.0,18.0,96,0.00,,---,0.09,VWS V13.01,2013-04-11 14:08:00,
2013-04-11 10:13:00,42.7,41.6,29.82,East,96,8.0,18.0,96,0.00,,---,0.09,VWS V13.01,2013-04-11 14:13:00,
2013-04-11 10:19:00,42.7,41.6,29.84,ENE,64,0.0,18.0,96,0.00,,---,0.09,VWS V13.01,2013-04-11 14:19:00,
2013-04-11 10:24:00,42.8,41.7,29.84,East,101,7.0,18.0,96,0.00,,---,0.09,VWS V13.01,2013-04-11 14:24:00,
2013-04-11 10:29:00,42.8,41.7,29.84,ESE,104,6.0,18.0,96,0.00,,---,0.09,VWS V13.01,2013-04-11 14:29:00,
2013-04-11 10:34:00,42.8,41.7,29.84,East,86,5.0,8.0,96,0.00,,---,0.09,VWS V13.01,2013-04-11 14:34:00,
2013-04-11 10:39:00,42.6,41.5,29.84,East,90,6.0,11.0,96,0.00,,---,0.09,VWS V13.01,2013-04-11 14:39:00,
2013-04-11 10:44:00,42.4,41.1,29.83,East,83,9.0,12.0,95,0.00,,---,0.09,VWS V13.01,2013-04-11 14:44:00,
2013-04-11 10:50:00,42.1,40.8,29.83,East,85,6.0,13.0,95,0.00,,---,0.09,VWS V13.01,2013-04-11 14:50:00,
2013-04-11 10:55:00,41.8,40.5,29.82,East,89,7.0,13.0,95,0.00,,---,0.09,VWS V13.01,2013-04-11 14:55:00,
2013-04-11 11:00:00,42.1,40.8,29.81,East,99,12.0,15.0,95,0.00,,---,0.09,VWS V13.01,2013-04-11 15:00:00,
2013-04-11 11:05:00,41.7,40.4,29.80,East,101,10.0,15.0,95,0.00,,---,0.09,VWS V13.01,2013-04-11 15:05:00,
2013-04-11 11:10:00,41.7,40.4,29.81,ESE,107,6.0,15.0,95,0.00,,---,0.09,VWS V13.01,2013-04-11 15:10:00,
2013-04-11 11:16:00,41.7,40.4,29.83,East,82,5.0,15.0,95,0.00,,---,0.09,VWS V13.01,2013-04-11 15:16:00,
2013-04-11 11:22:00,41.7,40.4,29.82,ESE,107,6.0,15.0,95,0.00,,---,0.09,VWS V13.01,2013-04-11 15:22:00,
2013-04-11 11:27:00,41.9,40.6,29.81,ESE,111,8.0,15.0,95,0.00,,---,0.09,VWS V13.01,2013-04-11 15:27:00,
2013-04-11 11:32:00,42.0,40.7,29.83,East,88,5.0,7.0,95,0.00,,---,0.09,VWS V13.01,2013-04-11 15:32:00,
2013-04-11 11:38:00,42.2,40.9,29.82,ESE,102,5.0,8.0,95,0.00,,---,0.09,VWS V13.01,2013-04-11 15:38:00,
2013-04-11 11:43:00,42.4,41.1,29.80,ESE,113,9.0,14.0,95,0.00,,---,0.09,VWS V13.01,2013-04-11 15:43:00,
2013-04-11 11:48:00,42.6,41.3,29.80,ESE,108,7.0,14.0,95,0.00,,---,0.09,VWS V13.01,2013-04-11 15:48:00,
2013-04-11 11:53:00,42.8,41.5,29.79,ESE,119,7.0,14.0,95,0.00,,---,0.09,VWS V13.01,2013-04-11 15:53:00,
2013-04-11 11:59:00,42.8,41.5,29.79,SE,128,8.0,14.0,95,0.00,,---,0.09,VWS V13.01,2013-04-11 15:59:00,
2013-04-11 12:04:00,42.7,41.1,29.78,East,79,10.0,19.0,94,0.00,,---,0.09,VWS V13.01,2013-04-11 16:04:00,
2013-04-11 12:09:00,42.9,41.3,29.78,East,94,7.0,19.0,94,0.00,,---,0.09,VWS V13.01,2013-04-11 16:09:00,
2013-04-11 12:14:00,43.1,41.5,29.79,East,101,10.0,19.0,94,0.00,,---,0.09,VWS V13.01,2013-04-11 16:14:00,
2013-04-11 12:20:00,43.2,41.6,29.80,East,97,6.0,19.0,94,0.00,,---,0.09,VWS V13.01,2013-04-11 16:20:00,
2013-04-11 12:25:00,43.2,41.6,29.80,ESE,103,6.0,19.0,94,0.00,,---,0.09,VWS V13.01,2013-04-11 16:25:00,
2013-04-11 12:30:00,43.3,41.7,29.80,ESE,121,11.0,11.0,94,0.00,,---,0.09,VWS V13.01,2013-04-11 16:30:00,
2013-04-11 12:36:00,43.4,41.8,29.80,ESE,115,7.0,11.0,94,0.00,,---,0.09,VWS V13.01,2013-04-11 16:36:00,
2013-04-11 12:41:00,43.3,41.7,29.80,East,98,4.0,11.0,94,0.00,,---,0.09,VWS V13.01,2013-04-11 16:41:00,
2013-04-11 12:47:00,43.3,41.4,29.80,ESE,113,7.0,11.0,93,0.00,,---,0.09,VWS V13.01,2013-04-11 16:47:00,
2013-04-11 12:52:00,43.4,41.5,29.79,ESE,107,7.0,11.0,93,0.00,,---,0.09,VWS V13.01,2013-04-11 16:52:00,
2013-04-11 12:57:00,43.5,41.6,29.79,East,94,8.0,11.0,93,0.00,,---,0.09,VWS V13.01,2013-04-11 16:57:00,
2013-04-11 13:02:00,43.4,41.5,29.80,East,86,2.0,7.0,93,0.00,,---,0.09,VWS V13.01,2013-04-11 17:02:00,
2013-04-11 13:07:00,43.3,41.4,29.80,East,90,6.0,11.0,93,0.00,,---,0.09,VWS V13.01,2013-04-11 17:07:00,
2013-04-11 13:13:00,43.2,41.3,29.80,East,90,9.0,13.0,93,0.00,,---,0.09,VWS V13.01,2013-04-11 17:13:00,
2013-04-11 13:18:00,43.2,41.3,29.79,East,95,9.0,13.0,93,0.00,,---,0.09,VWS V13.01,2013-04-11 17:18:00,
2013-04-11 13:24:00,43.2,41.3,29.79,ESE,111,11.0,13.0,93,0.00,,---,0.09,VWS V13.01,2013-04-11 17:24:00,
2013-04-11 13:29:00,43.2,41.0,29.78,ESE,107,10.0,14.0,92,0.00,,---,0.09,VWS V13.01,2013-04-11 17:29:00,
2013-04-11 13:34:00,43.3,41.1,29.79,East,88,7.0,13.0,92,0.00,,---,0.09,VWS V13.01,2013-04-11 17:34:00,
2013-04-11 13:39:00,43.3,41.1,29.81,ENE,70,4.0,14.0,92,0.00,,---,0.09,VWS V13.01,2013-04-11 17:39:00,
2013-04-11 13:44:00,43.2,41.0,29.82,NE,46,11.0,14.0,92,0.00,,---,0.09,VWS V13.01,2013-04-11 17:44:00,
2013-04-11 13:50:00,43.0,40.8,29.80,East,88,3.0,14.0,92,0.00,,---,0.09,VWS V13.01,2013-04-11 17:50:00,
2013-04-11 13:55:00,42.9,40.7,29.80,ESE,119,14.0,15.0,92,0.00,,---,0.09,VWS V13.01,2013-04-11 17:55:00,
2013-04-11 14:00:00,42.6,40.4,29.80,East,91,9.0,15.0,92,0.00,,---,0.09,VWS V13.01,2013-04-11 18:00:00,
2013-04-11 14:05:00,42.6,40.4,29.79,ESE,112,9.0,12.0,92,0.00,,---,0.09,VWS V13.01,2013-04-11 18:05:00,
2013-04-11 14:10:00,42.6,40.4,29.79,ESE,107,13.0,13.0,92,0.00,,---,0.09,VWS V13.01,2013-04-11 18:10:00,
2013-04-11 14:15:00,42.5,40.3,29.78,ESE,103,11.0,15.0,92,0.00,,---,0.09,VWS V13.01,2013-04-11 18:15:00,
2013-04-11 14:21:00,42.5,40.3,29.78,ESE,113,8.0,15.0,92,0.00,,---,0.09,VWS V13.01,2013-04-11 18:21:00,
2013-04-11 14:26:00,42.4,40.2,29.78,East,94,10.0,15.0,92,0.00,,---,0.09,VWS V13.01,2013-04-11 18:26:00,
2013-04-11 14:31:00,42.4,40.2,29.78,East,86,9.0,10.0,92,0.00,,---,0.09,VWS V13.01,2013-04-11 18:31:00,
2013-04-11 14:37:00,42.2,40.0,29.78,East,95,7.0,13.0,92,0.00,,---,0.09,VWS V13.01,2013-04-11 18:37:00,
2013-04-11 14:42:00,42.1,39.7,29.79,East,80,10.0,13.0,91,0.00,,---,0.09,VWS V13.01,2013-04-11 18:42:00,
2013-04-11 14:47:00,42.1,40.0,29.80,ESE,107,10.0,13.0,92,0.00,,---,0.09,VWS V13.01,2013-04-11 18:47:00,
2013-04-11 14:53:00,42.0,39.6,29.81,East,101,8.0,13.0,91,0.00,,---,0.09,VWS V13.01,2013-04-11 18:53:00,
2013-04-11 14:58:00,42.0,39.6,29.82,ESE,107,7.0,13.0,91,0.00,,---,0.09,VWS V13.01,2013-04-11 18:58:00,
2013-04-11 15:03:00,41.9,39.5,29.82,ESE,104,6.0,10.0,91,0.00,,---,0.09,VWS V13.01,2013-04-11 19:03:00,
2013-04-11 15:08:00,42.0,39.6,29.83,East,98,8.0,10.0,91,0.00,,---,0.09,VWS V13.01,2013-04-11 19:08:00,
2013-04-11 15:13:00,42.0,39.6,29.82,East,92,6.0,10.0,91,0.00,,---,0.09,VWS V13.01,2013-04-11 19:13:00,
2013-04-11 15:18:00,42.0,39.6,29.82,ESE,107,5.0,10.0,91,0.00,,---,0.09,VWS V13.01,2013-04-11 19:18:00,
2013-04-11 15:23:00,42.0,39.6,29.83,East,86,7.0,10.0,91,0.00,,---,0.09,VWS V13.01,2013-04-11 19:23:00,
2013-04-11 15:29:00,42.0,39.6,29.82,ESE,111,8.0,10.0,91,0.00,,---,0.09,VWS V13.01,2013-04-11 19:29:00,
2013-04-11 15:34:00,42.3,39.9,29.80,ESE,117,10.0,14.0,91,0.00,,---,0.09,VWS V13.01,2013-04-11 19:34:00,
2013-04-11 15:39:00,42.4,40.2,29.82,East,87,8.0,14.0,92,0.00,,---,0.09,VWS V13.01,2013-04-11 19:39:00,
2013-04-11 15:44:00,42.2,39.8,29.81,ESE,107,7.0,14.0,91,0.00,,---,0.09,VWS V13.01,2013-04-11 19:44:00,
2013-04-11 15:50:00,42.2,39.8,29.81,ESE,107,5.0,14.0,91,0.00,,---,0.09,VWS V13.01,2013-04-11 19:50:00,
2013-04-11 15:55:00,42.2,39.8,29.81,East,96,11.0,14.0,91,0.00,,---,0.09,VWS V13.01,2013-04-11 19:55:00,
2013-04-11 16:00:00,41.9,39.5,29.81,East,92,7.0,14.0,91,0.00,,---,0.09,VWS V13.01,2013-04-11 20:00:00,
2013-04-11 16:05:00,41.8,39.4,29.81,East,83,10.0,12.0,91,0.00,,---,0.09,VWS V13.01,2013-04-11 20:05:00,
2013-04-11 16:11:00,41.6,39.2,29.81,ESE,106,9.0,14.0,91,0.00,,---,0.09,VWS V13.01,2013-04-11 20:11:00,
2013-04-11 16:16:00,41.7,39.3,29.80,East,96,11.0,14.0,91,0.00,,---,0.09,VWS V13.01,2013-04-11 20:16:00,
2013-04-11 16:21:00,41.6,39.2,29.79,East,95,10.0,15.0,91,0.00,,---,0.09,VWS V13.01,2013-04-11 20:21:00,
2013-04-11 16:26:00,41.7,39.3,29.79,East,98,10.0,15.0,91,0.00,,---,0.09,VWS V13.01,2013-04-11 20:26:00,
2013-04-11 16:31:00,41.8,39.4,29.77,East,87,9.0,13.0,91,0.00,,---,0.09,VWS V13.01,2013-04-11 20:31:00,
2013-04-11 16:37:00,41.9,39.5,29.76,East,88,9.0,13.0,91,0.00,,---,0.09,VWS V13.01,2013-04-11 20:37:00,
2013-04-11 16:42:00,41.8,39.1,29.76,East,79,9.0,15.0,90,0.00,,---,0.09,VWS V13.01,2013-04-11 20:42:00,
2013-04-11 16:47:00,41.8,39.4,29.77,ESE,121,10.0,15.0,91,0.00,,---,0.09,VWS V13.01,2013-04-11 20:47:00,
2013-04-11 16:52:00,41.9,39.5,29.76,ESE,106,7.0,15.0,91,0.00,,---,0.09,VWS V13.01,2013-04-11 20:52:00,
2013-04-11 16:58:00,42.0,39.6,29.76,East,84,6.0,15.0,91,0.00,,---,0.09,VWS V13.01,2013-04-11 20:58:00,
2013-04-11 17:03:00,41.9,39.2,29.76,East,90,6.0,9.0,90,0.00,,---,0.09,VWS V13.01,2013-04-11 21:03:00,
2013-04-11 17:08:00,41.8,39.1,29.76,SE,125,8.0,11.0,90,0.00,,---,0.09,VWS V13.01,2013-04-11 21:08:00,
2013-04-11 17:13:00,42.0,39.6,29.76,East,90,8.0,11.0,91,0.00,,---,0.09,VWS V13.01,2013-04-11 21:13:00,
2013-04-11 17:18:00,42.0,39.6,29.76,East,80,6.0,11.0,91,0.00,,---,0.09,VWS V13.01,2013-04-11 21:18:00,
2013-04-11 17:24:00,41.9,39.2,29.76,East,91,5.0,11.0,90,0.00,,---,0.09,VWS V13.01,2013-04-11 21:24:00,
2013-04-11 17:29:00,41.9,39.5,29.76,ESE,111,5.0,11.0,91,0.00,,---,0.09,VWS V13.01,2013-04-11 21:29:00,
2013-04-11 17:34:00,41.7,39.0,29.77,East,96,5.0,8.0,90,0.00,,---,0.09,VWS V13.01,2013-04-11 21:34:00,
2013-04-11 17:39:00,41.9,39.5,29.77,ENE,75,9.0,9.0,91,0.00,,---,0.09,VWS V13.01,2013-04-11 21:39:00,
2013-04-11 17:45:00,41.8,39.1,29.77,ESE,107,8.0,12.0,90,0.00,,---,0.09,VWS V13.01,2013-04-11 21:45:00,
2013-04-11 17:50:00,41.8,39.1,29.78,East,90,7.0,12.0,90,0.00,,---,0.09,VWS V13.01,2013-04-11 21:50:00,
2013-04-11 17:55:00,41.9,39.5,29.78,East,94,7.0,12.0,91,0.00,,---,0.09,VWS V13.01,2013-04-11 21:55:00,
2013-04-11 18:00:00,42.0,39.3,29.79,East,87,5.0,7.0,90,0.00,,---,0.09,VWS V13.01,2013-04-11 22:00:00,
2013-04-11 18:07:00,42.0,39.3,29.78,East,82,10.0,12.0,90,0.00,,---,0.09,VWS V13.01,2013-04-11 22:07:00,
2013-04-11 18:12:00,42.0,39.3,29.78,East,99,8.0,12.0,90,0.00,,---,0.09,VWS V13.01,2013-04-11 22:12:00,
2013-04-11 18:17:00,42.0,39.3,29.78,East,93,9.0,13.0,90,0.00,,---,0.09,VWS V13.01,2013-04-11 22:17:00,
2013-04-11 18:22:00,42.1,39.4,29.78,ESE,107,9.0,14.0,90,0.00,,---,0.09,VWS V13.01,2013-04-11 22:22:00,
2013-04-11 18:28:00,42.0,39.3,29.79,ESE,103,6.0,14.0,90,0.00,,---,0.09,VWS V13.01,2013-04-11 22:28:00,
2013-04-11 18:33:00,42.1,39.4,29.78,East,95,8.0,12.0,90,0.00,,---,0.09,VWS V13.01,2013-04-11 22:33:00,
2013-04-11 18:38:00,42.0,39.3,29.79,East,98,3.0,12.0,90,0.00,,---,0.09,VWS V13.01,2013-04-11 22:38:00,
2013-04-11 18:43:00,42.0,39.3,29.79,ESE,116,7.0,12.0,90,0.00,,---,0.09,VWS V13.01,2013-04-11 22:43:00,
2013-04-11 18:48:00,41.9,39.2,29.78,ESE,121,8.0,12.0,90,0.00,,---,0.09,VWS V13.01,2013-04-11 22:48:00,
2013-04-11 18:53:00,41.9,39.2,29.78,ESE,113,8.0,12.0,90,0.00,,---,0.09,VWS V13.01,2013-04-11 22:53:00,
2013-04-11 18:59:00,42.0,39.6,29.78,East,86,8.0,12.0,91,0.00,,---,0.09,VWS V13.01,2013-04-11 22:59:00,
2013-04-11 19:04:00,42.0,39.3,29.78,ESE,105,10.0,11.0,90,0.00,,---,0.09,VWS V13.01,2013-04-11 23:04:00,
2013-04-11 19:09:00,41.9,39.2,29.77,ESE,113,8.0,11.0,90,0.00,,---,0.09,VWS V13.01,2013-04-11 23:09:00,
2013-04-11 19:15:00,41.9,39.2,29.77,ESE,111,6.0,12.0,90,0.00,,---,0.09,VWS V13.01,2013-04-11 23:15:00,
2013-04-11 19:20:00,41.8,39.1,29.78,East,98,7.0,12.0,90,0.00,,---,0.09,VWS V13.01,2013-04-11 23:20:00,
2013-04-11 19:25:00,41.8,39.1,29.78,ESE,113,7.0,12.0,90,0.00,,---,0.09,VWS V13.01,2013-04-11 23:25:00,
2013-04-11 19:31:00,41.8,39.4,29.77,ESE,109,8.0,8.0,91,0.00,,---,0.09,VWS V13.01,2013-04-11 23:31:00,
2013-04-11 19:36:00,41.8,39.1,29.77,East,92,7.0,8.0,90,0.00,,---,0.09,VWS V13.01,2013-04-11 23:36:00,
2013-04-11 19:41:00,41.8,39.1,29.77,ESE,115,6.0,9.0,90,0.00,,---,0.09,VWS V13.01,2013-04-11 23:41:00,
2013-04-11 19:46:00,41.9,39.2,29.77,East,92,6.0,11.0,90,0.00,,---,0.09,VWS V13.01,2013-04-11 23:46:00,
2013-04-11 19:52:00,41.9,38.9,29.77,East,91,8.0,11.0,89,0.00,,---,0.09,VWS V13.01,2013-04-11 23:52:00,
2013-04-11 19:57:00,41.9,38.9,29.77,ESE,108,7.0,11.0,89,0.00,,---,0.09,VWS V13.01,2013-04-11 23:57:00,
2013-04-11 20:02:00,41.9,38.9,29.77,ESE,123,8.0,14.0,89,0.00,,---,0.09,VWS V13.01,2013-04-12 00:02:00,
2013-04-11 20:07:00,41.9,38.9,29.76,East,96,7.0,14.0,89,0.00,,---,0.09,VWS V13.01,2013-04-12 00:07:00,
2013-04-11 20:12:00,41.8,38.8,29.76,East,82,8.0,14.0,89,0.00,,---,0.09,VWS V13.01,2013-04-12 00:12:00,
2013-04-11 20:18:00,41.7,38.7,29.76,ESE,105,4.0,14.0,89,0.00,,---,0.09,VWS V13.01,2013-04-12 00:18:00,
2013-04-11 20:23:00,41.7,38.7,29.76,East,88,8.0,14.0,89,0.00,,---,0.09,VWS V13.01,2013-04-12 00:23:00,
2013-04-11 20:28:00,41.6,38.3,29.76,ESE,111,5.0,14.0,88,0.00,,---,0.09,VWS V13.01,2013-04-12 00:28:00,
2013-04-11 20:33:00,41.5,38.2,29.76,ESE,115,6.0,8.0,88,0.00,,---,0.09,VWS V13.01,2013-04-12 00:33:00,
2013-04-11 20:39:00,41.5,38.5,29.77,ESE,105,8.0,9.0,89,0.00,,---,0.09,VWS V13.01,2013-04-12 00:39:00,
2013-04-11 20:44:00,41.5,38.2,29.76,ESE,119,9.0,10.0,88,0.00,,---,0.09,VWS V13.01,2013-04-12 00:44:00,
2013-04-11 20:49:00,41.4,38.1,29.76,ESE,107,5.0,10.0,88,0.00,,---,0.09,VWS V13.01,2013-04-12 00:49:00,
2013-04-11 20:54:00,41.4,38.1,29.76,East,96,6.0,10.0,88,0.00,,---,0.09,VWS V13.01,2013-04-12 00:54:00,
2013-04-11 21:00:00,41.4,38.1,29.76,ESE,109,6.0,10.0,88,0.00,,---,0.09,VWS V13.01,2013-04-12 01:00:00,
2013-04-11 21:05:00,41.4,38.1,29.76,East,94,6.0,8.0,88,0.00,,---,0.09,VWS V13.01,2013-04-12 01:05:00,
2013-04-11 21:10:00,41.5,38.2,29.77,ESE,112,5.0,9.0,88,0.00,,---,0.09,VWS V13.01,2013-04-12 01:10:00,
2013-04-11 21:15:00,41.5,38.2,29.76,East,94,4.0,9.0,88,0.00,,---,0.09,VWS V13.01,2013-04-12 01:15:00,
2013-04-11 21:20:00,41.5,38.2,29.76,East,97,5.0,9.0,88,0.00,,---,0.09,VWS V13.01,2013-04-12 01:20:00,
2013-04-11 21:26:00,41.5,38.2,29.76,East,95,6.0,9.0,88,0.00,,---,0.09,VWS V13.01,2013-04-12 01:26:00,
2013-04-11 21:32:00,41.5,38.2,29.76,East,99,6.0,6.0,88,0.00,,---,0.09,VWS V13.01,2013-04-12 01:32:00,
2013-04-11 21:37:00,41.6,38.6,29.75,East,90,6.0,9.0,89,0.00,,---,0.09,VWS V13.01,2013-04-12 01:37:00,
2013-04-11 21:42:00,41.6,38.6,29.74,ESE,111,6.0,9.0,89,0.00,,---,0.09,VWS V13.01,2013-04-12 01:42:00,
2013-04-11 21:47:00,41.6,38.6,29.74,ESE,110,6.0,12.0,89,0.00,,---,0.09,VWS V13.01,2013-04-12 01:47:00,
2013-04-11 21:53:00,41.6,38.6,29.74,East,88,5.0,12.0,89,0.00,,---,0.09,VWS V13.01,2013-04-12 01:53:00,
2013-04-11 21:58:00,41.7,38.7,29.74,East,82,5.0,12.0,89,0.00,,---,0.09,VWS V13.01,2013-04-12 01:58:00,
2013-04-11 22:03:00,41.8,38.8,29.75,East,90,4.0,6.0,89,0.00,,---,0.09,VWS V13.01,2013-04-12 02:03:00,
2013-04-11 22:08:00,41.9,38.9,29.75,East,93,4.0,7.0,89,0.00,,---,0.09,VWS V13.01,2013-04-12 02:08:00,
2013-04-11 22:13:00,41.9,39.2,29.75,East,91,5.0,8.0,90,0.00,,---,0.09,VWS V13.01,2013-04-12 02:13:00,
2013-04-11 22:18:00,42.0,39.3,29.74,East,80,5.0,9.0,90,0.00,,---,0.09,VWS V13.01,2013-04-12 02:18:00,
2013-04-11 22:23:00,42.0,39.3,29.74,East,86,4.0,9.0,90,0.00,,---,0.09,VWS V13.01,2013-04-12 02:23:00,
2013-04-11 22:29:00,42.1,39.4,29.73,ESE,104,7.0,9.0,90,0.00,,---,0.09,VWS V13.01,2013-04-12 02:29:00,
2013-04-11 22:34:00,42.1,39.7,29.73,East,92,5.0,7.0,91,0.00,,---,0.09,VWS V13.01,2013-04-12 02:34:00,
2013-04-11 22:39:00,42.1,39.7,29.72,East,98,6.0,9.0,91,0.00,,---,0.09,VWS V13.01,2013-04-12 02:39:00,
2013-04-11 22:45:00,42.1,39.7,29.71,East,85,11.0,11.0,91,0.00,,---,0.09,VWS V13.01,2013-04-12 02:45:00,
2013-04-11 22:50:00,42.1,39.7,29.71,East,82,5.0,11.0,91,0.00,,---,0.09,VWS V13.01,2013-04-12 02:50:00,
2013-04-11 22:55:00,42.2,40.0,29.71,East,88,3.0,11.0,92,0.00,,---,0.09,VWS V13.01,2013-04-12 02:55:00,
2013-04-11 23:00:00,42.2,39.8,29.71,East,90,2.0,2.0,91,0.00,,---,0.09,VWS V13.01,2013-04-12 03:00:00,
2013-04-11 23:05:00,42.2,40.0,29.69,East,92,6.0,9.0,92,0.00,,---,0.09,VWS V13.01,2013-04-12 03:05:00,
2013-04-11 23:10:00,42.2,40.0,29.69,East,83,8.0,9.0,92,0.00,,---,0.09,VWS V13.01,2013-04-12 03:10:00,
2013-04-11 23:16:00,42.2,40.0,29.68,East,94,6.0,12.0,92,0.00,,---,0.09,VWS V13.01,2013-04-12 03:16:00,
2013-04-11 23:21:00,42.2,40.0,29.69,ENE,71,6.0,12.0,92,0.00,,---,0.09,VWS V13.01,2013-04-12 03:21:00,
2013-04-11 23:26:00,42.2,40.0,29.69,East,88,5.0,12.0,92,0.00,,---,0.09,VWS V13.01,2013-04-12 03:26:00,
2013-04-11 23:31:00,42.2,40.0,29.69,ESE,111,2.0,6.0,92,0.00,,---,0.09,VWS V13.01,2013-04-12 03:31:00,
2013-04-11 23:37:00,42.2,40.3,29.69,East,96,4.0,9.0,93,0.00,,---,0.09,VWS V13.01,2013-04-12 03:37:00,
2013-04-11 23:42:00,42.2,40.3,29.68,East,94,5.0,9.0,93,0.00,,---,0.09,VWS V13.01,2013-04-12 03:42:00,
2013-04-11 23:47:00,42.2,40.3,29.67,ENE,75,5.0,9.0,93,0.00,,---,0.09,VWS V13.01,2013-04-12 03:47:00,
2013-04-11 23:52:00,42.3,40.4,29.66,ENE,66,8.0,9.0,93,0.00,,---,0.09,VWS V13.01,2013-04-12 03:52:00,
2013-04-11 23:57:00,42.4,40.5,29.66,East,96,5.0,9.0,93,0.00,,---,0.09,VWS V13.01,2013-04-12 03:57:00,